CheckWX is a tool to help pilots better visualize weather data.  It is not intended as a substitute for an official pre-flight weather briefing.

23:46:02 UTC

EDDH METAR
Hamburg Airport
Hamburg, Germany
Current

26 mins ago

EDDH 022320Z 36001KT CAVOK 14/10 Q1011 NOSIG
Observed
Jun-2 @ 23:20 UTC
Wind
  • 360° at 1 KTS
Visibility
10,000+ meters
Flight Rules
VFR
Cloud Levels
  • Clear skies
Temperature
14°C / 57°F
Dewpoint
10°C / 50°F
Humidity
77%
Altimeter
29.85" Hg
Pressure
1010.92 hPa
Previous

56 mins ago

EDDH 022250Z VRB02KT CAVOK 15/10 Q1011 NOSIG
Observed
Jun-2 @ 22:50 UTC
Wind
  • Variable at 2 KTS
Visibility
10,000+ meters
Flight Rules
VFR
Cloud Levels
  • Clear skies
Temperature
15°C / 59°F
Dewpoint
10°C / 50°F
Humidity
72%
Altimeter
29.85" Hg
Pressure
1010.92 hPa
Previous

1 hour ago

EDDH 022220Z VRB02KT CAVOK 15/10 Q1011 NOSIG
Observed
Jun-2 @ 22:20 UTC
Wind
  • Variable at 2 KTS
Visibility
10,000+ meters
Flight Rules
VFR
Cloud Levels
  • Clear skies
Temperature
15°C / 59°F
Dewpoint
10°C / 50°F
Humidity
72%
Altimeter
29.85" Hg
Pressure
1010.92 hPa